No particular awareness of the weather is required.    There are no Weather-warnings


Meteo18 Weather Cam more information Meteo18 Weather Cam


Thunder radar more information blitzortung!


Rain radar more information rain snow radar


Visit our other weather sites:

Template documentation
and downloads

And another site



Weather Underground History page Text

Daily Summary for February 11, 2018 Units:  Metric    English   Both
« Previous Day
Next Day »
Daily Weekly Monthly Yearly Custom
  High: Low: Average:
Temperature: -17.8 °C -17.6 °C -15.6 °C
Dew Point: -17.8 °C -18.1 °C -16.6 °C
Humidity: Humidity % 62 % 89 %
Wind Speed: 0 km/h 0 km/h 14 km/h
Wind Gust: 0 km/h - -
Wind:- - WSW
Pressure: 0 hPa 34164.7 hPa -
Precipitation: 121.92 mm    
Historical Graphs
 
 
Tabular Data for February 11, 2018
Time Temperature Dew Point Pressure Wind Wind Speed Wind Gust Humidity Rainfall Rate (Hourly)
-17.8 °C -17.8 °C 0 hPa Calm     Humidity % 0 mm
00:03 -17.4 °C -18.1 °C 34405.1 hPa SSW 28.5 km/h 28.5 km/h 92 % 0 mm
00:09 -17.4 °C -17.9 °C 34405.1 hPa SW 15.6 km/h 28.5 km/h 93 % 0 mm
00:15 -17.4 °C -18 °C 34405.1 hPa SSW 15.6 km/h 25.9 km/h 93 % 0 mm
00:21 -17.4 °C -17.9 °C 34395 hPa SSW 15.6 km/h 31.1 km/h 94 % 0 mm
00:27 -17.4 °C -17.9 °C 34395 hPa SSW 15.6 km/h 28.5 km/h 94 % 0 mm
00:33 -17.5 °C -18 °C 34395 hPa SW 33.6 km/h 33.6 km/h 94 % 0 mm
00:39 -17.6 °C -17.9 °C 34384.8 hPa SW 12.7 km/h 28.5 km/h 95 % 0 mm
00:45 -17.6 °C -17.9 °C 34371.3 hPa SW 28.5 km/h 31.1 km/h 95 % 0 mm
00:51 -17.6 °C -17.9 °C 34371.3 hPa SSW 20.9 km/h 28.5 km/h 95 % 0 mm
00:57 -17.6 °C -17.9 °C 34371.3 hPa SSW 17.9 km/h 25.9 km/h 95 % 0 mm
01:03 -17.6 °C -17.9 °C 34371.3 hPa SSW 12.7 km/h 23.3 km/h 95 % 7.62 mm
01:09 -17.6 °C -17.9 °C 34361.1 hPa SSW 12.7 km/h 23.3 km/h 95 % 7.62 mm
01:15 -17.6 °C -17.9 °C 34361.1 hPa SSW 26.2 km/h 33.6 km/h 96 % 7.62 mm
01:21 -17.6 °C -17.9 °C 34347.6 hPa SSW 17.9 km/h 25.9 km/h 96 % 7.62 mm
01:27 -17.5 °C -17.8 °C 34347.6 hPa South 15.6 km/h 36.2 km/h 96 % 7.62 mm
01:33 -17.5 °C -17.8 °C 34347.6 hPa SSW 12.7 km/h 28.5 km/h 96 % 7.62 mm
01:39 -17.4 °C -17.8 °C 34347.6 hPa South 17.9 km/h 25.9 km/h 96 % 7.62 mm
01:45 -17.4 °C -17.8 °C 34347.6 hPa SSW 12.7 km/h 23.3 km/h 96 % 7.62 mm
01:51 -17.4 °C -17.8 °C 34337.4 hPa SSW 15.6 km/h 23.3 km/h 96 % 12.7 mm
01:57 -17.4 °C -17.8 °C 34337.4 hPa SSW 15.6 km/h 20.8 km/h 96 % 12.7 mm
02:03 -17.4 °C -17.7 °C 34327.3 hPa SSW 20.9 km/h 28.5 km/h 96 % 12.7 mm
02:09 -17.4 °C -17.7 °C 34327.3 hPa SSW 23 km/h 36.2 km/h 96 % 12.7 mm
02:15 -17.3 °C -17.7 °C 34313.7 hPa SSW 20.9 km/h 28.5 km/h 96 % 12.7 mm
02:21 -17.3 °C -17.7 °C 34313.7 hPa SSW 20.9 km/h 33.6 km/h 96 % 25.4 mm
02:27 -17.3 °C -17.7 °C 34313.7 hPa SSW 20.9 km/h 36.2 km/h 96 % 33.02 mm
02:33 -17.3 °C -17.7 °C 34303.6 hPa SSW 26.2 km/h 36.2 km/h 96 % 38.1 mm
02:39 -17.3 °C -17.6 °C 34303.6 hPa SW 26.2 km/h 31.1 km/h 96 % 38.1 mm
02:45 -17.3 °C -17.6 °C 34293.4 hPa SSW 20.9 km/h 31.1 km/h 96 % 38.1 mm
02:51 -17.3 °C -17.6 °C 34293.4 hPa SSW 17.9 km/h 31.1 km/h 96 % 38.1 mm
02:57 -17.2 °C -17.6 °C 34293.4 hPa SSW 28.5 km/h 33.6 km/h 96 % 38.1 mm
03:03 -17.2 °C -17.4 °C 34279.9 hPa SSW 17.9 km/h 28.5 km/h 97 % 38.1 mm
03:09 -17.2 °C -17.4 °C 34279.9 hPa SSW 17.9 km/h 33.6 km/h 97 % 38.1 mm
03:15 -17.2 °C -17.4 °C 34269.7 hPa SSW 23 km/h 36.2 km/h 97 % 38.1 mm
03:21 -17.1 °C -17.3 °C 34269.7 hPa SW 31.4 km/h 36.2 km/h 97 % 33.02 mm
03:27 -17.1 °C -17.3 °C 34269.7 hPa SSW 31.4 km/h 33.6 km/h 97 % 25.4 mm
03:33 -17.1 °C -17.3 °C 34256.2 hPa SSW 28.5 km/h 33.6 km/h 97 % 25.4 mm
03:39 -17.1 °C -17.3 °C 34256.2 hPa SSW 26.2 km/h 33.6 km/h 97 % 25.4 mm
03:45 -17.1 °C -17.3 °C 34256.2 hPa SSW 20.9 km/h 28.5 km/h 97 % 20.32 mm
03:51 -17.1 °C -17.3 °C 34246 hPa SW 38.8 km/h 44.1 km/h 97 % 20.32 mm
03:57 -17.1 °C -17.3 °C 34246 hPa SW 38.8 km/h 38.8 km/h 97 % 12.7 mm
04:03 -17.1 °C -17.3 °C 34246 hPa South 28.5 km/h 38.8 km/h 97 % 20.32 mm
04:09 -17.1 °C -17.3 °C 34246 hPa SSW 33.6 km/h 41.4 km/h 97 % 12.7 mm
04:15 -17.1 °C -17.3 °C 34246 hPa South 31.4 km/h 38.8 km/h 97 % 12.7 mm
04:21 -17.1 °C -17.3 °C 34235.8 hPa SSW 26.2 km/h 38.8 km/h 97 % 12.7 mm
04:27 -17.1 °C -17.3 °C 34235.8 hPa SSW 20.9 km/h 33.6 km/h 97 % 12.7 mm
04:33 -17.1 °C -17.3 °C 34222.3 hPa SSW 26.2 km/h 44.1 km/h 97 % 12.7 mm
04:39 -17 °C -17.2 °C 34222.3 hPa South 17.9 km/h 25.9 km/h 97 % 12.7 mm
04:45 -17 °C -17.2 °C 34222.3 hPa SW 26.2 km/h 28.5 km/h 97 % 12.7 mm
04:51 -17 °C -17.2 °C 34222.3 hPa SSW 23 km/h 25.9 km/h 97 % 12.7 mm
04:57 -17 °C -17.2 °C 34222.3 hPa South 17.9 km/h 23.3 km/h 97 % 12.7 mm
05:03 -17 °C -17.2 °C 34212.1 hPa SSW 20.9 km/h 28.5 km/h 97 % 12.7 mm
05:09 -16.9 °C -17.2 °C 34212.1 hPa SW 20.9 km/h 23.3 km/h 97 % 12.7 mm
05:15 -16.9 °C -17.2 °C 34212.1 hPa SW 20.9 km/h 33.6 km/h 97 % 12.7 mm
05:21 -16.9 °C -17.2 °C 34212.1 hPa SSW 20.9 km/h 31.1 km/h 97 % 12.7 mm
05:27 -16.9 °C -17.1 °C 34212.1 hPa SSW 12.7 km/h 18.2 km/h 97 % 7.62 mm
05:33 -16.9 °C -17.1 °C 34212.1 hPa SSE 12.7 km/h 23.3 km/h 97 % 7.62 mm
05:39 -16.9 °C -17.1 °C 34198.6 hPa SSW 15.6 km/h 25.9 km/h 97 % 7.62 mm
05:45 -16.9 °C -17.1 °C 34198.6 hPa SSE 12.7 km/h 20.8 km/h 97 % 7.62 mm
05:51 -16.9 °C -17.1 °C 34198.6 hPa SSW 17.9 km/h 23.3 km/h 97 % 12.7 mm
05:57 -16.9 °C -17.1 °C 34198.6 hPa SSW 20.9 km/h 23.3 km/h 97 % 7.62 mm
06:03 -16.8 °C -17.1 °C 34188.4 hPa SW 20.9 km/h 23.3 km/h 97 % 7.62 mm
06:09 -16.8 °C -17.1 °C 34188.4 hPa SSW 12.7 km/h 25.9 km/h 97 % 7.62 mm
06:15 -16.8 °C -17.1 °C 34198.6 hPa SSW 7.6 km/h 20.8 km/h 97 % 7.62 mm
06:21 -16.8 °C -17.1 °C 34188.4 hPa SSW 15.6 km/h 23.3 km/h 97 % 7.62 mm
06:27 -16.8 °C -16.9 °C 34188.4 hPa SSW 23 km/h 23.3 km/h 98 % 7.62 mm
06:33 -16.8 °C -16.9 °C 34188.4 hPa SSW 17.9 km/h 23.3 km/h 98 % 7.62 mm
06:39 -16.8 °C -16.9 °C 34188.4 hPa SSW 10.3 km/h 20.8 km/h 98 % 7.62 mm
06:45 -16.8 °C -16.9 °C 34188.4 hPa SSW 12.7 km/h 23.3 km/h 98 % 7.62 mm
06:51 -16.7 °C -16.9 °C 34188.4 hPa SSW 10.3 km/h 23.3 km/h 98 % 0 mm
06:57 -16.7 °C -16.9 °C 34188.4 hPa SSW 12.7 km/h 20.8 km/h 98 % 7.62 mm
07:03 -16.7 °C -16.8 °C 34178.3 hPa SSW 12.7 km/h 15.6 km/h 98 % 7.62 mm
07:09 -16.7 °C -16.8 °C 34178.3 hPa South 5.1 km/h 18.2 km/h 98 % 7.62 mm
07:15 -16.7 °C -16.8 °C 34178.3 hPa SSW 10.3 km/h 18.2 km/h 98 % 7.62 mm
07:21 -16.6 °C -16.8 °C 34178.3 hPa SSW 10.3 km/h 15.6 km/h 98 % 7.62 mm
07:27 -16.6 °C -16.8 °C 34164.7 hPa SSW 12.7 km/h 18.2 km/h 98 % 7.62 mm
07:33 -16.6 °C -16.8 °C 34164.7 hPa SSW 10.3 km/h 15.6 km/h 98 % 7.62 mm
07:39 -16.6 °C -16.7 °C 34164.7 hPa SSE 7.6 km/h 18.2 km/h 98 % 7.62 mm
07:45 -16.6 °C -16.7 °C 34164.7 hPa SSW 10.3 km/h 18.2 km/h 98 % 7.62 mm
07:51 -16.5 °C -16.7 °C 34164.7 hPa SSW 7.6 km/h 15.6 km/h 98 % 7.62 mm
07:57 -16.4 °C -16.6 °C 34164.7 hPa SW 10.3 km/h 25.9 km/h 98 % 0 mm
08:03 -16.4 °C -16.6 °C 34164.7 hPa SSW 10.3 km/h 18.2 km/h 98 % 0 mm
08:15 -16.3 °C -16.5 °C 34164.7 hPa SSW 7.6 km/h 18.2 km/h 98 % 7.62 mm
08:21 -16.3 °C -16.5 °C 34164.7 hPa SSW 10.3 km/h 12.9 km/h 98 % 7.62 mm
08:27 -16.3 °C -16.4 °C 34164.7 hPa SSW 7.6 km/h 15.6 km/h 98 % 7.62 mm
08:33 -16.2 °C -16.4 °C 34164.7 hPa SSW 10.3 km/h 15.6 km/h 98 % 12.7 mm
08:39 -16.2 °C -16.3 °C 34164.7 hPa SSW 7.6 km/h 18.2 km/h 98 % 12.7 mm
08:45 -16.1 °C -16.2 °C 34164.7 hPa SSW 7.6 km/h 15.6 km/h 98 % 12.7 mm
08:51 -16 °C -16.2 °C 34178.3 hPa SW 10.3 km/h 12.9 km/h 98 % 12.7 mm
08:57 -15.9 °C -16.1 °C 34178.3 hPa Calm   10.3 km/h 98 % 12.7 mm
09:03 -15.8 °C -15.9 °C 34188.4 hPa SSW 5.1 km/h 10.3 km/h 98 % 12.7 mm
09:09 -15.7 °C -15.9 °C 34188.4 hPa SSW 12.7 km/h 18.2 km/h 98 % 12.7 mm
09:15 -15.7 °C -15.8 °C 34188.4 hPa SW 7.6 km/h 15.6 km/h 98 % 12.7 mm
09:21 -15.6 °C -15.8 °C 34188.4 hPa SW 12.7 km/h 15.6 km/h 98 % 12.7 mm
09:27 -15.6 °C -15.7 °C 34188.4 hPa WSW 12.7 km/h 12.9 km/h 98 % 12.7 mm
09:34 -15.5 °C -15.7 °C 34188.4 hPa SW 2.3 km/h 10.3 km/h 98 % 7.62 mm
09:40 -15.4 °C -15.6 °C 34188.4 hPa SW 5.1 km/h 15.6 km/h 98 % 12.7 mm
09:45 -15.4 °C -15.6 °C 34198.6 hPa WSW 5.1 km/h 10.3 km/h 98 % 7.62 mm
09:51 -15.4 °C -15.6 °C 34198.6 hPa SW 2.3 km/h 18.2 km/h 98 % 7.62 mm
09:57 -15.3 °C -15.5 °C 34198.6 hPa SW 7.6 km/h 15.6 km/h 98 % 7.62 mm
10:04 -15.3 °C -15.5 °C 34198.6 hPa SW 7.6 km/h 15.6 km/h 98 % 7.62 mm
10:10 -15.3 °C -15.5 °C 34198.6 hPa SW 12.7 km/h 18.2 km/h 98 % 7.62 mm
10:16 -15.3 °C -15.5 °C 34188.4 hPa WSW 12.7 km/h 23.3 km/h 98 % 7.62 mm
10:22 -15.3 °C -15.4 °C 34198.6 hPa WSW 12.7 km/h 15.6 km/h 98 % 7.62 mm
10:28 -15.2 °C -15.4 °C 34188.4 hPa WSW 10.3 km/h 15.6 km/h 98 % 7.62 mm
10:34 -15.2 °C -15.3 °C 34198.6 hPa WSW 10.3 km/h 12.9 km/h 98 % 7.62 mm
10:40 -15.1 °C -15.3 °C 34198.6 hPa WSW 10.3 km/h 15.6 km/h 98 % 0 mm
10:46 -15.1 °C -15.2 °C 34198.6 hPa WSW 5.1 km/h 15.6 km/h 98 % 0 mm
10:52 -15.1 °C -15.2 °C 34198.6 hPa WSW 20.9 km/h 20.9 km/h 98 % 0 mm
10:58 -15 °C -15.2 °C 34198.6 hPa West 10.3 km/h 12.9 km/h 98 % 0 mm
11:04 -14.9 °C -15.1 °C 34198.6 hPa WSW 10.3 km/h 20.8 km/h 98 % 0 mm
11:10 -14.9 °C -15.1 °C 34198.6 hPa WSW 17.9 km/h 18.2 km/h 98 % 0 mm
11:16 -14.9 °C -15.1 °C 34198.6 hPa WNW 12.7 km/h 23.3 km/h 98 % 0 mm
11:22 -14.8 °C -14.9 °C 34198.6 hPa West 12.7 km/h 18.2 km/h 98 % 0 mm
11:28 -14.7 °C -14.9 °C 34198.6 hPa West 10.3 km/h 12.9 km/h 98 % 0 mm
11:34 -14.7 °C -14.9 °C 34198.6 hPa WNW 10.3 km/h 12.9 km/h 97 % 0 mm
11:40 -14.6 °C -14.8 °C 34198.6 hPa West 7.6 km/h 15.6 km/h 97 % 0 mm
11:46 -14.6 °C -14.8 °C 34198.6 hPa WSW 5.1 km/h 12.9 km/h 97 % 0 mm
11:52 -14.6 °C -14.9 °C 34198.6 hPa WSW 10.3 km/h 18.2 km/h 96 % 0 mm
11:58 -14.5 °C -14.9 °C 34198.6 hPa WSW 10.3 km/h 18.2 km/h 95 % 0 mm
12:04 -14.3 °C -14.7 °C 34198.6 hPa West 5.1 km/h 10.3 km/h 95 % 0 mm
12:10 -14.3 °C -14.8 °C 34198.6 hPa West 17.9 km/h 20.8 km/h 94 % 0 mm
12:16 -14.2 °C -14.7 °C 34198.6 hPa West 2.3 km/h 12.9 km/h 94 % 0 mm
12:22 -14.1 °C -14.7 °C 34198.6 hPa West 10.3 km/h 18.2 km/h 93 % 0 mm
12:28 -14 °C -14.7 °C 34198.6 hPa West 20.9 km/h 25.9 km/h 92 % 0 mm
12:34 -13.9 °C -14.8 °C 34212.1 hPa WNW 20.9 km/h 25.9 km/h 90 % 0 mm
12:40 -13.8 °C -14.9 °C 34212.1 hPa West 28.5 km/h 41.4 km/h 88 % 0 mm
12:46 -13.7 °C -14.8 °C 34198.6 hPa Calm   15.6 km/h 88 % 0 mm
12:52 -13.7 °C -14.8 °C 34198.6 hPa WNW 20.9 km/h 25.9 km/h 87 % 0 mm
12:58 -13.7 °C -14.8 °C 34198.6 hPa WNW 7.6 km/h 23.3 km/h 87 % 0 mm
13:04 -13.7 °C -14.9 °C 34212.1 hPa West 20.9 km/h 25.9 km/h 86 % 0 mm
13:10 -13.7 °C -15 °C 34212.1 hPa West 17.9 km/h 28.5 km/h 85 % 0 mm
13:16 -13.7 °C -15.3 °C 34198.6 hPa West 12.7 km/h 28.5 km/h 82 % 0 mm
13:22 -13.7 °C -15.6 °C 34198.6 hPa WNW 20.9 km/h 33.6 km/h 79 % 0 mm
13:28 -13.7 °C -15.5 °C 34198.6 hPa West 2.3 km/h 25.9 km/h 80 % 0 mm
13:34 -13.6 °C -15.3 °C 34198.6 hPa NW 10.3 km/h 18.2 km/h 80 % 0 mm
13:40 -13.5 °C -15.4 °C 34198.6 hPa NW 12.7 km/h 28.5 km/h 79 % 0 mm
13:46 -13.4 °C -15.4 °C 34198.6 hPa WNW 15.6 km/h 31.1 km/h 78 % 0 mm
13:52 -13.5 °C -15.6 °C 34198.6 hPa NNW 10.3 km/h 31.1 km/h 77 % 0 mm
13:58 -13.5 °C -15.7 °C 34198.6 hPa NW 15.6 km/h 20.8 km/h 76 % 0 mm
14:04 -13.6 °C -16.1 °C 34198.6 hPa WNW 23 km/h 31.1 km/h 73 % 0 mm
14:10 -13.6 °C -16.2 °C 34198.6 hPa WNW 12.7 km/h 33.6 km/h 72 % 0 mm
14:16 -13.6 °C -16.4 °C 34198.6 hPa WNW 12.7 km/h 33.6 km/h 70 % 0 mm
14:22 -13.5 °C -16.3 °C 34198.6 hPa West 26.2 km/h 33.6 km/h 70 % 0 mm
14:28 -13.4 °C -16.6 °C 34198.6 hPa WNW 15.6 km/h 31.1 km/h 67 % 0 mm
14:34 -13.4 °C -16.6 °C 34198.6 hPa West 20.9 km/h 25.9 km/h 67 % 0 mm
14:40 -13.3 °C -16.1 °C 34198.6 hPa West 17.9 km/h 23.3 km/h 70 % 0 mm
14:46 -13.3 °C -16.4 °C 34198.6 hPa WNW 17.9 km/h 33.6 km/h 68 % 0 mm
14:52 -13.3 °C -16.4 °C 34198.6 hPa WNW 20.9 km/h 23.3 km/h 68 % 0 mm
14:58 -13.2 °C -16.3 °C 34198.6 hPa WNW 15.6 km/h 20.8 km/h 68 % 0 mm
15:04 -13.2 °C -16.3 °C 34198.6 hPa NW 10.3 km/h 15.6 km/h 68 % 0 mm
15:10 -13.2 °C -16.4 °C 34198.6 hPa NW 20.9 km/h 28.5 km/h 67 % 0 mm
15:16 -13.2 °C -16.4 °C 34198.6 hPa WNW 20.9 km/h 23.3 km/h 67 % 0 mm
15:22 -13.1 °C -16.2 °C 34198.6 hPa WNW 15.6 km/h 31.1 km/h 68 % 0 mm
15:28 -13.2 °C -16.6 °C 34198.6 hPa West 17.9 km/h 31.1 km/h 65 % 0 mm
15:34 -13.2 °C -16.4 °C 34198.6 hPa West 15.6 km/h 31.1 km/h 67 % 0 mm
15:40 -13.2 °C -16.8 °C 34198.6 hPa West 17.9 km/h 33.6 km/h 64 % 0 mm
15:46 -13.3 °C -17.1 °C 34198.6 hPa West 26.2 km/h 36.2 km/h 62 % 0 mm
15:52 -13.3 °C -17.1 °C 34212.1 hPa West 20.9 km/h 31.1 km/h 62 % 0 mm
15:58 -13.3 °C -17 °C 34212.1 hPa WNW 17.9 km/h 25.9 km/h 63 % 0 mm
16:04 -13.3 °C -17 °C 34212.1 hPa West 12.7 km/h 31.1 km/h 63 % 0 mm
16:10 -13.4 °C -16.9 °C 34212.1 hPa West 15.6 km/h 20.8 km/h 64 % 0 mm
16:16 -13.4 °C -16.8 °C 34212.1 hPa West 15.6 km/h 18.2 km/h 65 % 0 mm
16:22 -13.4 °C -16.9 °C 34212.1 hPa West 15.6 km/h 36.2 km/h 65 % 0 mm
16:28 -13.4 °C -17.1 °C 34212.1 hPa West 5.1 km/h 25.9 km/h 63 % 0 mm
16:34 -13.5 °C -17.2 °C 34212.1 hPa WNW 12.7 km/h 20.8 km/h 63 % 0 mm
16:40 -13.6 °C -17 °C 34212.1 hPa WNW 15.6 km/h 15.6 km/h 65 % 0 mm
16:46 -13.6 °C -17 °C 34222.3 hPa WNW 10.3 km/h 12.9 km/h 65 % 0 mm
16:52 -13.6 °C -16.8 °C 34222.3 hPa WNW 15.6 km/h 15.6 km/h 67 % 0 mm
16:58 -13.7 °C -16.8 °C 34222.3 hPa WSW 10.3 km/h 15.6 km/h 67 % 0 mm
17:04 -13.7 °C -16.8 °C 34222.3 hPa WNW 10.3 km/h 15.6 km/h 67 % 0 mm
17:10 -13.7 °C -16.7 °C 34222.3 hPa West 2.3 km/h 23.3 km/h 68 % 0 mm
17:16 -13.7 °C -16.7 °C 34222.3 hPa WNW 10.3 km/h 23.3 km/h 68 % 0 mm
17:22 -13.7 °C -16.6 °C 34222.3 hPa West 17.9 km/h 20.8 km/h 70 % 0 mm
17:28 -13.8 °C -16.6 °C 34222.3 hPa WNW 10.3 km/h 10.3 km/h 70 % 0 mm
17:34 -13.8 °C -16.6 °C 34235.8 hPa WNW 15.6 km/h 20.8 km/h 71 % 0 mm
17:40 -13.9 °C -16.7 °C 34222.3 hPa WNW 31.4 km/h 31.4 km/h 71 % 0 mm
17:46 -13.9 °C -16.6 °C 34235.8 hPa West 10.3 km/h 28.5 km/h 72 % 0 mm
17:52 -14.1 °C -16.4 °C 34235.8 hPa WNW 17.9 km/h 59.5 km/h 74 % 0 mm
17:58 -14.3 °C -16.3 °C 34246 hPa West 20.9 km/h 49.2 km/h 78 % 0 mm
18:04 -14.9 °C -16.3 °C 34235.8 hPa West 23 km/h 33.6 km/h 84 % 7.62 mm
18:10 -15.1 °C -16.4 °C 34235.8 hPa WNW 7.6 km/h 28.5 km/h 84 % 7.62 mm
18:16 -15.1 °C -16.4 °C 34246 hPa WNW 12.7 km/h 20.8 km/h 84 % 7.62 mm
18:22 -15.1 °C -16.4 °C 34246 hPa WNW 5.1 km/h 10.3 km/h 85 % 7.62 mm
18:28 -15.2 °C -16.4 °C 34256.2 hPa WNW 10.3 km/h 15.6 km/h 85 % 7.62 mm
18:34 -15.2 °C -16.3 °C 34256.2 hPa WNW 10.3 km/h 20.8 km/h 86 % 7.62 mm
18:40 -15.2 °C -16.3 °C 34256.2 hPa West 12.7 km/h 20.8 km/h 86 % 7.62 mm
18:46 -15.1 °C -16.3 °C 34269.7 hPa West 23 km/h 31.1 km/h 85 % 7.62 mm
18:52 -15.1 °C -16.2 °C 34269.7 hPa WNW 12.7 km/h 38.8 km/h 86 % 7.62 mm
18:58 -15.2 °C -16.2 °C 34256.2 hPa West 17.9 km/h 23.3 km/h 88 % 7.62 mm
19:04 -15.3 °C -16.2 °C 34269.7 hPa WNW 10.3 km/h 15.6 km/h 89 % 0 mm
19:10 -15.4 °C -16.4 °C 34269.7 hPa WNW 7.6 km/h 23.3 km/h 89 % 7.62 mm
19:16 -15.6 °C -16.4 °C 34269.7 hPa WNW 5.1 km/h 12.9 km/h 89 % 7.62 mm
19:22 -15.6 °C -16.5 °C 34269.7 hPa WNW 2.3 km/h 10.3 km/h 89 % 7.62 mm
19:28 -15.6 °C -16.5 °C 34269.7 hPa WNW 5.1 km/h 7.7 km/h 89 % 7.62 mm
19:34 -15.7 °C -16.5 °C 34279.9 hPa West 2.3 km/h 7.7 km/h 90 % 7.62 mm
19:40 -15.7 °C -16.5 °C 34279.9 hPa WNW 2.3 km/h 7.7 km/h 90 % 7.62 mm
19:47 -15.7 °C -16.4 °C 34279.9 hPa Calm   5.1 km/h 91 % 7.62 mm
19:53 -15.7 °C -16.5 °C 34279.9 hPa West 2.3 km/h 2.6 km/h 90 % 7.62 mm
19:59 -15.7 °C -16.4 °C 34279.9 hPa Calm     91 % 7.62 mm
20:05 -15.8 °C -16.5 °C 34293.4 hPa Calm   2.6 km/h 91 % 7.62 mm
20:11 -15.8 °C -16.5 °C 34293.4 hPa Calm   2.6 km/h 91 % 0 mm
20:17 -15.8 °C -16.5 °C 34293.4 hPa WNW 5.1 km/h 7.7 km/h 92 % 0 mm
20:23 -15.7 °C -16.6 °C 34293.4 hPa WNW 7.6 km/h 15.6 km/h 90 % 0 mm
20:29 -15.7 °C -16.6 °C 34303.6 hPa WNW 7.6 km/h 12.9 km/h 89 % 0 mm
20:35 -15.7 °C -16.6 °C 34303.6 hPa Calm   12.9 km/h 89 % 0 mm
20:41 -15.7 °C -16.6 °C 34303.6 hPa WNW 5.1 km/h 15.6 km/h 89 % 0 mm
20:47 -15.7 °C -16.6 °C 34303.6 hPa WNW 12.7 km/h 20.8 km/h 89 % 0 mm
20:53 -15.7 °C -16.6 °C 34303.6 hPa WNW 12.7 km/h 20.8 km/h 89 % 0 mm
20:59 -15.7 °C -16.7 °C 34313.7 hPa WNW 5.1 km/h 20.8 km/h 88 % 0 mm
21:05 -15.7 °C -16.7 °C 34313.7 hPa WNW 17.9 km/h 28.5 km/h 88 % 0 mm
21:11 -15.7 °C -16.7 °C 34313.7 hPa WNW 7.6 km/h 31.1 km/h 88 % 0 mm
21:17 -15.7 °C -16.7 °C 34313.7 hPa West 12.7 km/h 33.6 km/h 88 % 0 mm
21:23 -15.7 °C -16.7 °C 34313.7 hPa WNW 7.6 km/h 23.3 km/h 88 % 0 mm
21:29 -15.7 °C -16.7 °C 34313.7 hPa WNW 7.6 km/h 23.3 km/h 88 % 0 mm
21:35 -15.7 °C -16.7 °C 34313.7 hPa NW 10.3 km/h 18.2 km/h 88 % 0 mm
21:41 -15.7 °C -16.7 °C 34313.7 hPa NW 12.7 km/h 25.9 km/h 88 % 0 mm
21:47 -15.7 °C -16.7 °C 34313.7 hPa West 5.1 km/h 23.3 km/h 88 % 0 mm
21:53 -15.7 °C -16.7 °C 34313.7 hPa West 2.3 km/h 28.5 km/h 88 % 0 mm
21:59 -15.8 °C -16.8 °C 34313.7 hPa WNW 12.7 km/h 20.8 km/h 88 % 0 mm
22:05 -15.8 °C -16.8 °C 34327.3 hPa WNW 12.7 km/h 25.9 km/h 88 % 0 mm
22:11 -15.8 °C -16.8 °C 34327.3 hPa NW 15.6 km/h 20.8 km/h 88 % 0 mm
22:17 -15.9 °C -16.9 °C 34327.3 hPa WNW 10.3 km/h 31.1 km/h 88 % 0 mm
22:23 -15.9 °C -16.9 °C 34327.3 hPa NW 5.1 km/h 28.5 km/h 88 % 0 mm
22:29 -15.9 °C -16.9 °C 34327.3 hPa West 15.6 km/h 18.2 km/h 88 % 0 mm
22:35 -15.9 °C -16.9 °C 34337.4 hPa West 12.7 km/h 12.9 km/h 88 % 0 mm
22:41 -15.9 °C -16.9 °C 34337.4 hPa West 10.3 km/h 18.2 km/h 88 % 0 mm
22:47 -16 °C -17 °C 34347.6 hPa West 5.1 km/h 20.8 km/h 88 % 0 mm
22:53 -16 °C -16.9 °C 34347.6 hPa West 7.6 km/h 15.6 km/h 89 % 0 mm
22:59 -16.1 °C -17.1 °C 34347.6 hPa WNW 2.3 km/h 12.9 km/h 88 % 0 mm
23:05 -16.1 °C -16.9 °C 34347.6 hPa West 5.1 km/h 12.9 km/h 89 % 0 mm
23:11 -16.2 °C -17.1 °C 34347.6 hPa West 5.1 km/h 12.9 km/h 89 % 0 mm
23:17 -16.2 °C -17.1 °C 34347.6 hPa WNW 12.7 km/h 12.9 km/h 89 % 0 mm
23:23 -16.2 °C -17.1 °C 34347.6 hPa WNW 10.3 km/h 18.2 km/h 89 % 0 mm
23:29 -16.3 °C -17.2 °C 34347.6 hPa WNW 10.3 km/h 20.8 km/h 89 % 0 mm
23:35 -16.3 °C -17.2 °C 34347.6 hPa WNW 12.7 km/h 25.9 km/h 89 % 0 mm
23:41 -16.4 °C -17.4 °C 34347.6 hPa WNW 12.7 km/h 28.5 km/h 88 % 0 mm
23:47 -16.4 °C -17.4 °C 34347.6 hPa WNW 17.9 km/h 33.6 km/h 88 % 0 mm
23:53 -16.4 °C -17.4 °C 34361.1 hPa NW 17.9 km/h 28.5 km/h 87 % 0 mm
23:59 -16.4 °C -17.5 °C 34361.1 hPa WNW 7.6 km/h 28.5 km/h 87 % 0 mm
Meteo18
Compliments of Weather Underground - 4 mb

Script developed by  Jim McMurry - jmcmurry@mwt.net Adapted for the template by  Wim van der Kuil - Leuven-Template.eu

You find our weather info also at:

European Weather Network

Weather Underground

Equipment we use:

Weather-station
Davis Vue

Weather-program
Meteobridge

Weather-server
Raspberry PI 2 B+

Provider
1 and 1

Davis Vue

Meteobridge

Raspberry PI 2 B+

1 and 1